createdAt,value
2022-09-20T00:01:13.927Z,12.2
2022-09-20T00:07:24.500Z,12
2022-09-20T00:14:49.398Z,12
2022-09-20T00:20:59.934Z,11.7
2022-09-20T00:27:10.623Z,11.7
2022-09-20T00:33:21.293Z,11.7
2022-09-20T00:39:31.926Z,11.7
2022-09-20T00:45:34.506Z,11.6
2022-09-20T00:51:45.092Z,11.7
2022-09-20T00:57:55.754Z,11.8
2022-09-20T01:04:06.559Z,11.8
2022-09-20T01:10:17.090Z,11.8
2022-09-20T01:16:27.835Z,12.1
2022-09-20T01:22:38.448Z,12
2022-09-20T01:28:49.112Z,12
2022-09-20T01:35:07.951Z,12.1
2022-09-20T01:41:18.621Z,12.1
2022-09-20T01:47:21.069Z,12.1
2022-09-20T01:53:31.743Z,12.3
2022-09-20T01:59:42.449Z,12.3
2022-09-20T02:05:53.071Z,12.3
2022-09-20T02:12:03.756Z,12.2
2022-09-20T02:18:30.823Z,12
2022-09-20T02:24:41.455Z,12.1
2022-09-20T02:30:52.123Z,12.1
2022-09-20T02:37:02.824Z,12.1
2022-09-20T02:43:13.454Z,12.2
2022-09-20T02:49:15.927Z,12.2
2022-09-20T02:55:26.669Z,11.9
2022-09-20T03:01:37.353Z,11.7
2022-09-20T03:07:47.927Z,11.7
2022-09-20T03:13:58.629Z,11.6
2022-09-20T03:20:09.250Z,11.7
2022-09-20T03:26:19.913Z,11.6
2022-09-20T03:32:30.639Z,11.6
2022-09-20T03:38:41.272Z,11.6
2022-09-20T03:44:51.987Z,11.6
2022-09-20T03:50:54.448Z,11.7
2022-09-20T03:57:05.060Z,11.6
2022-09-20T04:03:15.727Z,11.6
2022-09-20T04:09:26.432Z,11.8
2022-09-20T04:15:37.079Z,11.7
2022-09-20T04:21:47.744Z,11.9
2022-09-20T04:27:58.436Z,11.8
2022-09-20T04:34:09.058Z,11.7
2022-09-20T04:40:19.800Z,11.7
2022-09-20T04:46:22.459Z,11.6
2022-09-20T04:51:35.131Z,11.6
2022-09-20T04:57:45.791Z,11.6
2022-09-20T05:03:56.488Z,11.6
2022-09-20T05:10:07.144Z,11.7
2022-09-20T05:16:17.805Z,11.6
2022-09-20T05:22:28.503Z,11.7
2022-09-20T05:28:39.159Z,11.7
2022-09-20T05:34:49.818Z,11.9
2022-09-20T05:41:00.459Z,11.9
2022-09-20T05:46:05.246Z,12
2022-09-20T05:52:07.789Z,12.1
2022-09-20T05:58:18.361Z,12.6
2022-09-20T06:04:28.990Z,12.7
2022-09-20T06:10:39.638Z,12.7
2022-09-20T06:16:50.425Z,12.9
2022-09-20T06:23:00.998Z,13
2022-09-20T06:29:11.654Z,13.1
2022-09-20T06:35:22.378Z,13.3
2022-09-20T06:41:32.985Z,13.3
2022-09-20T06:47:38.614Z,13.3
2022-09-20T06:53:46.155Z,13.7
2022-09-20T06:59:56.800Z,13.6
2022-09-20T07:06:07.472Z,13.8
2022-09-20T07:12:18.156Z,14
2022-09-20T07:17:31.028Z,14
2022-09-20T07:24:55.868Z,14.1
2022-09-20T07:31:06.538Z,14.1
2022-09-20T07:37:17.174Z,14.2
2022-09-20T07:43:27.847Z,15.1
2022-09-20T07:49:30.359Z,16.8
2022-09-20T07:55:40.968Z,18.1
2022-09-20T08:01:51.725Z,19.2
2022-09-20T08:09:16.500Z,19.1
2022-09-20T08:15:27.113Z,20.5
2022-09-20T08:21:37.782Z,20
2022-09-20T08:29:02.589Z,19.2
2022-09-20T08:35:21.439Z,19.3
2022-09-20T08:42:46.248Z,21.1
2022-09-20T08:50:11.658Z,19.7
2022-09-20T08:56:21.807Z,19.5
2022-09-20T09:02:32.401Z,19.7
2022-09-20T09:08:43.059Z,19.3
2022-09-20T09:14:53.691Z,20.1
2022-09-20T09:21:04.387Z,21.4
2022-09-20T09:27:15.065Z,23.3
2022-09-20T09:33:25.725Z,25
2022-09-20T09:39:36.380Z,25.2
2022-09-20T09:45:47.120Z,24.4
2022-09-20T09:51:00.070Z,24.9
2022-09-20T09:57:10.623Z,24.2
2022-09-20T10:03:13.220Z,25.3
2022-09-20T10:08:17.821Z,26.5
2022-09-20T10:14:28.500Z,27
2022-09-20T10:20:39.207Z,25.7
2022-09-20T10:26:49.813Z,24.2
2022-09-20T10:33:00.539Z,23
2022-09-20T10:39:11.194Z,21.5
2022-09-20T10:45:53.357Z,20.5
2022-09-20T10:51:32.502Z,18.7
2022-09-20T10:57:46.618Z,18.7
2022-09-20T11:03:45.634Z,18.4
2022-09-20T11:09:56.299Z,18.7
2022-09-20T11:16:07.016Z,18.8
2022-09-20T11:22:17.644Z,19.2
2022-09-20T11:28:28.320Z,19.3
2022-09-20T11:34:38.976Z,19.3
2022-09-20T11:40:49.695Z,19.3
2022-09-20T11:47:00.289Z,19.9
2022-09-20T11:53:10.979Z,19.2
2022-09-20T11:59:21.643Z,19.5
2022-09-20T12:05:24.102Z,19.4
2022-09-20T12:11:34.821Z,19.8
2022-09-20T12:17:45.587Z,19.8
2022-09-20T12:22:58.359Z,19.8
2022-09-20T12:29:09.091Z,19.5
2022-09-20T12:35:19.704Z,19.5
2022-09-20T12:41:30.391Z,18.9
2022-09-20T12:47:41.104Z,19
2022-09-20T12:53:51.695Z,19.6
2022-09-20T13:00:02.377Z,19.7
2022-09-20T13:06:04.852Z,19.5
2022-09-20T13:12:15.537Z,19.1
2022-09-20T13:18:26.182Z,18.7
2022-09-20T13:24:36.904Z,19.1
2022-09-20T13:30:47.532Z,19.3
2022-09-20T13:36:58.197Z,19.2
2022-09-20T13:43:23.774Z,19.4
2022-09-20T13:49:19.563Z,19.4
2022-09-20T13:55:30.171Z,19.4
2022-09-20T14:01:40.898Z,19.1
2022-09-20T14:07:43.344Z,19.3
2022-09-20T14:12:48.052Z,19.3
2022-09-20T14:18:58.732Z,19.3
2022-09-20T14:25:09.371Z,18.8
2022-09-20T14:31:20.126Z,18.5
2022-09-20T14:37:30.743Z,18.4
2022-09-20T14:44:55.514Z,18
2022-09-20T14:50:08.457Z,18.4
2022-09-20T14:56:19.117Z,18.5
2022-09-20T15:02:29.854Z,18.4
2022-09-20T15:08:32.245Z,18.3
2022-09-20T15:14:42.937Z,18.3
2022-09-20T15:20:53.596Z,18.3
2022-09-20T15:27:04.232Z,18.1
2022-09-20T15:33:14.930Z,18.1
2022-09-20T15:39:25.771Z,17.9
2022-09-20T15:45:36.304Z,17.9
2022-09-20T15:51:46.938Z,17.6
2022-09-20T15:57:57.573Z,17.7
2022-09-20T16:04:00.050Z,17.7
2022-09-20T16:10:10.721Z,17.6
2022-09-20T16:16:21.496Z,17.4
2022-09-20T16:22:32.039Z,17.2
2022-09-20T16:28:47.071Z,17
2022-09-20T16:34:53.365Z,17.2
2022-09-20T16:41:04.036Z,17.2
2022-09-20T16:47:14.748Z,17.3
2022-09-20T16:53:25.364Z,17.1
2022-09-20T16:59:36.029Z,17
2022-09-20T17:05:38.597Z,17
2022-09-20T17:11:49.186Z,17
2022-09-20T17:18:16.233Z,16.9
2022-09-20T17:24:26.953Z,16.8
2022-09-20T17:30:37.578Z,16.7
2022-09-20T17:36:48.251Z,16.5
2022-09-20T17:42:58.944Z,16.3
2022-09-20T17:49:09.645Z,16.3
2022-09-20T17:55:20.247Z,16.1
2022-09-20T18:01:30.935Z,16
2022-09-20T18:07:33.392Z,15.9
2022-09-20T18:13:44.141Z,15.7
2022-09-20T18:18:48.822Z,15.5
2022-09-20T18:24:59.525Z,15.4
2022-09-20T18:30:04.161Z,15.4
2022-09-20T18:37:29.000Z,14.8
2022-09-20T18:42:33.714Z,14.7
2022-09-20T18:48:44.390Z,14.6
2022-09-20T18:54:55.029Z,14.6
2022-09-20T19:01:05.802Z,14.5
2022-09-20T19:07:08.182Z,14.4
2022-09-20T19:13:18.866Z,14.2
2022-09-20T19:19:29.519Z,14
2022-09-20T19:25:40.183Z,13.9
2022-09-20T19:31:50.901Z,13.8
2022-09-20T19:38:01.508Z,13.8
2022-09-20T19:44:12.178Z,13.7
2022-09-20T19:49:25.113Z,13.6
2022-09-20T19:55:35.771Z,13.6
2022-09-20T20:01:46.504Z,13.5
2022-09-20T20:07:57.175Z,13.3
2022-09-20T20:13:59.555Z,13.5
2022-09-20T20:20:10.251Z,13.1
2022-09-20T20:26:20.917Z,13.2
2022-09-20T20:32:31.570Z,13.3
2022-09-20T20:38:42.233Z,13.1
2022-09-20T20:44:52.920Z,13.1
2022-09-20T20:51:03.552Z,13.1
2022-09-20T20:57:14.228Z,12.9
2022-09-20T21:03:24.889Z,12.9
2022-09-20T21:09:27.402Z,12.6
2022-09-20T21:15:38.133Z,12.5
2022-09-20T21:21:48.714Z,12.7
2022-09-20T21:27:59.413Z,12.6
2022-09-20T21:34:10.010Z,12.5
2022-09-20T21:40:20.813Z,12.4
2022-09-20T21:46:31.455Z,12.4
2022-09-20T21:52:42.015Z,12.3
2022-09-20T21:58:52.704Z,12.1
2022-09-20T22:05:03.361Z,12.2
2022-09-20T22:11:05.810Z,11.8
2022-09-20T22:17:32.929Z,11.9
2022-09-20T22:23:43.543Z,11.9
2022-09-20T22:29:54.225Z,11.8
2022-09-20T22:36:04.896Z,11.7
2022-09-20T22:41:09.615Z,11.7
2022-09-20T22:47:20.282Z,11.5
2022-09-20T22:53:30.969Z,11.4
2022-09-20T22:59:41.609Z,11.3
2022-09-20T23:05:52.289Z,11.2
2022-09-20T23:11:54.761Z,11.3
2022-09-20T23:18:05.390Z,11.3
2022-09-20T23:24:16.090Z,11.1
2022-09-20T23:30:26.831Z,11.1
2022-09-20T23:36:37.430Z,11
2022-09-20T23:42:48.060Z,11
2022-09-20T23:48:58.774Z,11
2022-09-20T23:55:09.402Z,11
